sensor_id;sensor_type;location;lat;lon;timestamp;pressure;altitude;pressure_sealevel;temperature;humidity
36454;BME280;22478;51.740;-1.314;2023-07-20T00:02:13;100423.91;;;13.71;65.25
36454;BME280;22478;51.740;-1.314;2023-07-20T00:04:40;100426.71;;;12.36;69.52
36454;BME280;22478;51.740;-1.314;2023-07-20T00:07:07;100424.13;;;12.36;70.96
36454;BME280;22478;51.740;-1.314;2023-07-20T00:09:35;100427.96;;;11.30;75.25
36454;BME280;22478;51.740;-1.314;2023-07-20T00:12:02;100421.60;;;12.97;70.17
36454;BME280;22478;51.740;-1.314;2023-07-20T00:14:29;100412.72;;;14.92;63.97
36454;BME280;22478;51.740;-1.314;2023-07-20T00:16:56;100410.07;;;15.14;60.63
36454;BME280;22478;51.740;-1.314;2023-07-20T00:19:24;100409.67;;;15.22;60.80
36454;BME280;22478;51.740;-1.314;2023-07-20T00:21:52;100411.24;;;15.75;59.39
36454;BME280;22478;51.740;-1.314;2023-07-20T00:24:19;100416.20;;;14.76;61.92
36454;BME280;22478;51.740;-1.314;2023-07-20T00:26:47;100416.32;;;14.44;60.52
36454;BME280;22478;51.740;-1.314;2023-07-20T00:29:14;100413.25;;;15.86;58.96
36454;BME280;22478;51.740;-1.314;2023-07-20T00:31:42;100412.82;;;16.09;57.95
36454;BME280;22478;51.740;-1.314;2023-07-20T00:34:09;100417.09;;;16.30;57.04
36454;BME280;22478;51.740;-1.314;2023-07-20T00:36:36;100420.41;;;16.18;57.21
36454;BME280;22478;51.740;-1.314;2023-07-20T00:39:03;100417.31;;;16.04;57.83
36454;BME280;22478;51.740;-1.314;2023-07-20T00:41:30;100416.84;;;15.15;59.47
36454;BME280;22478;51.740;-1.314;2023-07-20T00:43:57;100413.19;;;14.65;60.54
36454;BME280;22478;51.740;-1.314;2023-07-20T00:46:24;100410.72;;;15.59;58.03
36454;BME280;22478;51.740;-1.314;2023-07-20T00:48:52;100411.48;;;15.67;59.50
36454;BME280;22478;51.740;-1.314;2023-07-20T00:51:21;100411.92;;;14.63;60.73
36454;BME280;22478;51.740;-1.314;2023-07-20T00:53:49;100411.19;;;15.70;58.64
36454;BME280;22478;51.740;-1.314;2023-07-20T00:56:16;100409.09;;;15.74;58.81
36454;BME280;22478;51.740;-1.314;2023-07-20T00:58:44;100409.37;;;15.21;60.38
36454;BME280;22478;51.740;-1.314;2023-07-20T01:01:12;100407.72;;;15.33;60.05
36454;BME280;22478;51.740;-1.314;2023-07-20T01:03:39;100409.41;;;14.50;61.36
36454;BME280;22478;51.740;-1.314;2023-07-20T01:06:15;100405.91;;;15.52;59.80
36454;BME280;22478;51.740;-1.314;2023-07-20T01:08:51;100410.92;;;15.13;60.97
36454;BME280;22478;51.740;-1.314;2023-07-20T01:11:28;100410.83;;;15.51;60.19
36454;BME280;22478;51.740;-1.314;2023-07-20T01:14:05;100408.56;;;14.25;62.86
36454;BME280;22478;51.740;-1.314;2023-07-20T01:16:33;100409.99;;;14.04;63.25
36454;BME280;22478;51.740;-1.314;2023-07-20T01:19:00;100413.15;;;13.14;65.95
36454;BME280;22478;51.740;-1.314;2023-07-20T01:21:32;100410.72;;;13.90;68.48
36454;BME280;22478;51.740;-1.314;2023-07-20T01:24:38;100405.04;;;14.97;63.14
36454;BME280;22478;51.740;-1.314;2023-07-20T01:27:26;100403.08;;;14.80;62.59
36454;BME280;22478;51.740;-1.314;2023-07-20T01:30:18;100400.94;;;14.85;62.57
36454;BME280;22478;51.740;-1.314;2023-07-20T01:32:54;100401.03;;;14.37;62.94
36454;BME280;22478;51.740;-1.314;2023-07-20T01:35:24;100402.84;;;14.37;63.06
36454;BME280;22478;51.740;-1.314;2023-07-20T01:37:54;100402.83;;;14.71;62.44
36454;BME280;22478;51.740;-1.314;2023-07-20T01:40:22;100402.40;;;14.91;62.02
36454;BME280;22478;51.740;-1.314;2023-07-20T01:42:49;100404.74;;;15.01;62.98
36454;BME280;22478;51.740;-1.314;2023-07-20T01:45:16;100406.38;;;15.07;62.23
36454;BME280;22478;51.740;-1.314;2023-07-20T01:47:43;100405.29;;;14.93;63.43
36454;BME280;22478;51.740;-1.314;2023-07-20T01:50:10;100407.40;;;14.24;62.34
36454;BME280;22478;51.740;-1.314;2023-07-20T01:52:37;100408.91;;;14.48;62.68
36454;BME280;22478;51.740;-1.314;2023-07-20T01:55:05;100405.18;;;15.32;62.88
36454;BME280;22478;51.740;-1.314;2023-07-20T01:57:33;100404.53;;;14.10;63.75
36454;BME280;22478;51.740;-1.314;2023-07-20T02:00:00;100402.21;;;14.75;63.29
36454;BME280;22478;51.740;-1.314;2023-07-20T02:02:27;100404.10;;;15.31;62.94
36454;BME280;22478;51.740;-1.314;2023-07-20T02:04:55;100403.84;;;14.19;63.57
36454;BME280;22478;51.740;-1.314;2023-07-20T02:07:22;100402.03;;;14.04;65.52
36454;BME280;22478;51.740;-1.314;2023-07-20T02:09:49;100400.94;;;14.90;64.80
36454;BME280;22478;51.740;-1.314;2023-07-20T02:12:16;100408.23;;;12.39;69.86
36454;BME280;22478;51.740;-1.314;2023-07-20T02:14:43;100402.51;;;14.02;67.75
36454;BME280;22478;51.740;-1.314;2023-07-20T02:17:10;100402.49;;;13.70;67.18
36454;BME280;22478;51.740;-1.314;2023-07-20T02:19:37;100400.88;;;14.28;66.66
36454;BME280;22478;51.740;-1.314;2023-07-20T02:22:05;100400.82;;;14.12;67.03
36454;BME280;22478;51.740;-1.314;2023-07-20T02:24:33;100402.92;;;13.62;68.65
36454;BME280;22478;51.740;-1.314;2023-07-20T02:27:00;100400.67;;;13.33;68.64
36454;BME280;22478;51.740;-1.314;2023-07-20T02:29:27;100398.13;;;13.45;66.54
36454;BME280;22478;51.740;-1.314;2023-07-20T02:31:54;100397.23;;;13.84;67.92
36454;BME280;22478;51.740;-1.314;2023-07-20T02:34:21;100397.77;;;13.91;66.57
36454;BME280;22478;51.740;-1.314;2023-07-20T02:36:48;100392.27;;;14.12;65.91
36454;BME280;22478;51.740;-1.314;2023-07-20T02:39:15;100390.00;;;14.35;65.30
36454;BME280;22478;51.740;-1.314;2023-07-20T02:41:42;100391.31;;;13.52;67.52
36454;BME280;22478;51.740;-1.314;2023-07-20T02:44:09;100392.82;;;14.51;66.24
36454;BME280;22478;51.740;-1.314;2023-07-20T02:46:36;100388.73;;;13.87;65.65
36454;BME280;22478;51.740;-1.314;2023-07-20T02:49:03;100394.12;;;14.02;68.01
36454;BME280;22478;51.740;-1.314;2023-07-20T02:51:30;100392.78;;;14.08;67.61
36454;BME280;22478;51.740;-1.314;2023-07-20T02:53:57;100391.76;;;13.81;68.41
36454;BME280;22478;51.740;-1.314;2023-07-20T02:56:24;100394.15;;;13.06;69.33
36454;BME280;22478;51.740;-1.314;2023-07-20T02:58:51;100396.12;;;12.88;72.27
36454;BME280;22478;51.740;-1.314;2023-07-20T03:01:18;100395.68;;;13.36;71.63
36454;BME280;22478;51.740;-1.314;2023-07-20T03:03:45;100394.49;;;13.94;70.39
36454;BME280;22478;51.740;-1.314;2023-07-20T03:06:12;100394.76;;;13.26;70.11
36454;BME280;22478;51.740;-1.314;2023-07-20T03:08:40;100390.87;;;14.07;68.93
36454;BME280;22478;51.740;-1.314;2023-07-20T03:11:07;100389.89;;;13.60;70.10
36454;BME280;22478;51.740;-1.314;2023-07-20T03:13:34;100394.53;;;13.15;71.45
36454;BME280;22478;51.740;-1.314;2023-07-20T03:16:01;100394.31;;;13.01;71.87
36454;BME280;22478;51.740;-1.314;2023-07-20T03:18:28;100398.12;;;13.32;72.33
36454;BME280;22478;51.740;-1.314;2023-07-20T03:20:55;100399.01;;;13.89;71.92
36454;BME280;22478;51.740;-1.314;2023-07-20T03:23:22;100399.23;;;12.70;73.87
36454;BME280;22478;51.740;-1.314;2023-07-20T03:25:49;100398.37;;;13.22;72.76
36454;BME280;22478;51.740;-1.314;2023-07-20T03:28:16;100398.48;;;13.19;72.88
36454;BME280;22478;51.740;-1.314;2023-07-20T03:30:43;100397.27;;;14.23;72.60
36454;BME280;22478;51.740;-1.314;2023-07-20T03:33:10;100395.95;;;13.40;71.65
36454;BME280;22478;51.740;-1.314;2023-07-20T03:35:37;100400.30;;;13.22;71.81
36454;BME280;22478;51.740;-1.314;2023-07-20T03:38:04;100398.09;;;14.02;71.84
36454;BME280;22478;51.740;-1.314;2023-07-20T03:40:32;100399.00;;;13.62;73.11
36454;BME280;22478;51.740;-1.314;2023-07-20T03:43:04;100394.14;;;13.39;73.39
36454;BME280;22478;51.740;-1.314;2023-07-20T03:45:31;100392.18;;;13.12;74.95
36454;BME280;22478;51.740;-1.314;2023-07-20T03:48:03;100390.34;;;12.50;78.58
36454;BME280;22478;51.740;-1.314;2023-07-20T03:50:30;100392.99;;;13.75;73.70
36454;BME280;22478;51.740;-1.314;2023-07-20T03:52:57;100394.99;;;13.14;74.20
36454;BME280;22478;51.740;-1.314;2023-07-20T03:55:25;100395.06;;;12.96;77.07
36454;BME280;22478;51.740;-1.314;2023-07-20T03:57:52;100394.89;;;13.48;75.49
36454;BME280;22478;51.740;-1.314;2023-07-20T04:00:19;100393.79;;;13.73;74.31
36454;BME280;22478;51.740;-1.314;2023-07-20T04:02:46;100393.88;;;13.17;75.84
36454;BME280;22478;51.740;-1.314;2023-07-20T04:05:13;100394.25;;;13.36;75.95
36454;BME280;22478;51.740;-1.314;2023-07-20T04:07:41;100393.21;;;13.35;78.27
36454;BME280;22478;51.740;-1.314;2023-07-20T04:10:08;100394.46;;;11.88;79.21
36454;BME280;22478;51.740;-1.314;2023-07-20T04:12:35;100396.76;;;12.63;81.00
36454;BME280;22478;51.740;-1.314;2023-07-20T04:15:03;100394.85;;;11.55;84.97
36454;BME280;22478;51.740;-1.314;2023-07-20T04:17:30;100389.86;;;12.06;84.32
36454;BME280;22478;51.740;-1.314;2023-07-20T04:19:57;100393.48;;;11.65;83.31
36454;BME280;22478;51.740;-1.314;2023-07-20T04:22:24;100390.20;;;11.88;81.33
36454;BME280;22478;51.740;-1.314;2023-07-20T04:24:51;100394.19;;;11.53;85.09
36454;BME280;22478;51.740;-1.314;2023-07-20T04:27:18;100394.45;;;11.66;83.09
36454;BME280;22478;51.740;-1.314;2023-07-20T04:29:45;100394.24;;;12.60;80.26
36454;BME280;22478;51.740;-1.314;2023-07-20T04:32:12;100389.17;;;12.12;79.39
36454;BME280;22478;51.740;-1.314;2023-07-20T04:34:39;100384.26;;;13.42;76.08
36454;BME280;22478;51.740;-1.314;2023-07-20T04:37:06;100385.83;;;13.03;75.84
36454;BME280;22478;51.740;-1.314;2023-07-20T04:39:34;100382.51;;;11.80;83.17
36454;BME280;22478;51.740;-1.314;2023-07-20T04:42:01;100384.70;;;12.04;82.13
36454;BME280;22478;51.740;-1.314;2023-07-20T04:44:28;100382.97;;;12.65;80.42
36454;BME280;22478;51.740;-1.314;2023-07-20T04:46:55;100384.27;;;13.11;79.34
36454;BME280;22478;51.740;-1.314;2023-07-20T04:49:22;100387.51;;;13.11;79.17
36454;BME280;22478;51.740;-1.314;2023-07-20T04:51:49;100393.33;;;12.90;78.52
36454;BME280;22478;51.740;-1.314;2023-07-20T04:54:16;100390.48;;;13.12;78.98
36454;BME280;22478;51.740;-1.314;2023-07-20T04:56:43;100391.48;;;12.92;79.56
36454;BME280;22478;51.740;-1.314;2023-07-20T04:59:11;100391.37;;;12.67;82.52
36454;BME280;22478;51.740;-1.314;2023-07-20T05:01:38;100389.13;;;12.94;81.84
36454;BME280;22478;51.740;-1.314;2023-07-20T05:04:05;100391.89;;;12.62;83.19
36454;BME280;22478;51.740;-1.314;2023-07-20T05:06:32;100394.35;;;11.40;90.79
36454;BME280;22478;51.740;-1.314;2023-07-20T05:09:04;100390.83;;;11.83;87.50
36454;BME280;22478;51.740;-1.314;2023-07-20T05:11:31;100393.99;;;10.70;88.68
36454;BME280;22478;51.740;-1.314;2023-07-20T05:13:59;100397.08;;;9.83;94.25
36454;BME280;22478;51.740;-1.314;2023-07-20T05:16:26;100399.96;;;10.01;99.28
36454;BME280;22478;51.740;-1.314;2023-07-20T05:18:53;100400.39;;;9.70;100.00
36454;BME280;22478;51.740;-1.314;2023-07-20T05:21:20;100399.80;;;10.26;100.00
36454;BME280;22478;51.740;-1.314;2023-07-20T05:23:47;100397.97;;;10.31;100.00
36454;BME280;22478;51.740;-1.314;2023-07-20T05:26:14;100400.57;;;10.30;100.00
36454;BME280;22478;51.740;-1.314;2023-07-20T05:28:41;100400.58;;;10.16;100.00
36454;BME280;22478;51.740;-1.314;2023-07-20T05:31:09;100399.33;;;11.87;96.50
36454;BME280;22478;51.740;-1.314;2023-07-20T05:33:36;100400.50;;;9.61;100.00
36454;BME280;22478;51.740;-1.314;2023-07-20T05:36:03;100396.45;;;10.55;100.00
36454;BME280;22478;51.740;-1.314;2023-07-20T05:38:31;100398.34;;;10.84;100.00
36454;BME280;22478;51.740;-1.314;2023-07-20T05:41:00;100397.60;;;11.58;95.57
36454;BME280;22478;51.740;-1.314;2023-07-20T05:43:27;100402.76;;;9.35;100.00
36454;BME280;22478;51.740;-1.314;2023-07-20T05:45:54;100402.49;;;11.55;97.18
36454;BME280;22478;51.740;-1.314;2023-07-20T05:48:21;100404.01;;;10.53;100.00
36454;BME280;22478;51.740;-1.314;2023-07-20T05:50:48;100406.93;;;9.87;100.00
36454;BME280;22478;51.740;-1.314;2023-07-20T05:53:15;100401.57;;;10.29;100.00
36454;BME280;22478;51.740;-1.314;2023-07-20T05:55:42;100400.21;;;11.45;100.00
36454;BME280;22478;51.740;-1.314;2023-07-20T05:58:09;100402.49;;;11.24;100.00
36454;BME280;22478;51.740;-1.314;2023-07-20T06:00:36;100398.57;;;10.76;100.00
36454;BME280;22478;51.740;-1.314;2023-07-20T06:03:03;100403.67;;;12.14;99.19
36454;BME280;22478;51.740;-1.314;2023-07-20T06:05:31;100404.48;;;11.23;100.00
36454;BME280;22478;51.740;-1.314;2023-07-20T06:07:58;100402.30;;;10.41;100.00
36454;BME280;22478;51.740;-1.314;2023-07-20T06:10:25;100402.07;;;10.77;100.00
36454;BME280;22478;51.740;-1.314;2023-07-20T06:12:52;100401.06;;;10.55;100.00
36454;BME280;22478;51.740;-1.314;2023-07-20T06:15:28;100407.41;;;8.04;100.00
36454;BME280;22478;51.740;-1.314;2023-07-20T06:17:55;100402.47;;;8.97;100.00
36454;BME280;22478;51.740;-1.314;2023-07-20T06:20:23;100398.44;;;10.89;100.00
36454;BME280;22478;51.740;-1.314;2023-07-20T06:22:50;100398.37;;;10.74;100.00
36454;BME280;22478;51.740;-1.314;2023-07-20T06:25:17;100400.23;;;11.59;98.86
36454;BME280;22478;51.740;-1.314;2023-07-20T06:27:44;100400.54;;;9.80;100.00
36454;BME280;22478;51.740;-1.314;2023-07-20T06:30:11;100399.59;;;11.00;100.00
36454;BME280;22478;51.740;-1.314;2023-07-20T06:32:38;100398.53;;;10.93;100.00
36454;BME280;22478;51.740;-1.314;2023-07-20T06:35:07;100400.44;;;9.82;100.00
36454;BME280;22478;51.740;-1.314;2023-07-20T06:37:34;100405.70;;;8.96;100.00
36454;BME280;22478;51.740;-1.314;2023-07-20T06:40:02;100408.30;;;9.71;100.00
36454;BME280;22478;51.740;-1.314;2023-07-20T06:42:29;100401.36;;;10.33;100.00
36454;BME280;22478;51.740;-1.314;2023-07-20T06:44:56;100402.77;;;9.77;100.00
36454;BME280;22478;51.740;-1.314;2023-07-20T06:47:23;100403.60;;;10.63;100.00
36454;BME280;22478;51.740;-1.314;2023-07-20T06:49:51;100402.91;;;10.36;100.00
36454;BME280;22478;51.740;-1.314;2023-07-20T06:52:17;100402.30;;;9.52;100.00
36454;BME280;22478;51.740;-1.314;2023-07-20T06:54:45;100398.30;;;10.22;100.00
36454;BME280;22478;51.740;-1.314;2023-07-20T06:57:12;100395.68;;;11.76;100.00
36454;BME280;22478;51.740;-1.314;2023-07-20T06:59:39;100399.50;;;9.53;100.00
36454;BME280;22478;51.740;-1.314;2023-07-20T07:02:06;100397.11;;;10.96;100.00
36454;BME280;22478;51.740;-1.314;2023-07-20T07:04:33;100396.01;;;10.51;100.00
36454;BME280;22478;51.740;-1.314;2023-07-20T07:07:01;100400.38;;;8.88;100.00
36454;BME280;22478;51.740;-1.314;2023-07-20T07:09:28;100397.46;;;9.83;100.00
36454;BME280;22478;51.740;-1.314;2023-07-20T07:11:55;100396.23;;;10.22;100.00
36454;BME280;22478;51.740;-1.314;2023-07-20T07:14:22;100395.30;;;11.01;100.00
36454;BME280;22478;51.740;-1.314;2023-07-20T07:16:49;100396.21;;;10.40;100.00
36454;BME280;22478;51.740;-1.314;2023-07-20T07:19:16;100395.80;;;10.55;100.00
36454;BME280;22478;51.740;-1.314;2023-07-20T07:21:43;100401.27;;;9.56;100.00
36454;BME280;22478;51.740;-1.314;2023-07-20T07:24:10;100395.46;;;11.09;100.00
36454;BME280;22478;51.740;-1.314;2023-07-20T07:26:37;100400.15;;;10.15;100.00
36454;BME280;22478;51.740;-1.314;2023-07-20T07:29:04;100398.35;;;10.28;100.00
36454;BME280;22478;51.740;-1.314;2023-07-20T07:31:36;100398.96;;;9.73;100.00
36454;BME280;22478;51.740;-1.314;2023-07-20T07:34:03;100395.00;;;11.52;100.00
36454;BME280;22478;51.740;-1.314;2023-07-20T07:36:31;100395.80;;;11.40;100.00
36454;BME280;22478;51.740;-1.314;2023-07-20T07:38:59;100395.56;;;12.50;100.00
36454;BME280;22478;51.740;-1.314;2023-07-20T07:41:27;100391.32;;;12.12;100.00
36454;BME280;22478;51.740;-1.314;2023-07-20T07:43:54;100392.43;;;12.33;100.00
36454;BME280;22478;51.740;-1.314;2023-07-20T07:46:21;100393.06;;;12.05;100.00
36454;BME280;22478;51.740;-1.314;2023-07-20T07:48:48;100398.06;;;9.24;100.00
36454;BME280;22478;51.740;-1.314;2023-07-20T07:51:15;100397.08;;;13.35;100.00
36454;BME280;22478;51.740;-1.314;2023-07-20T07:53:42;100395.62;;;12.25;100.00
36454;BME280;22478;51.740;-1.314;2023-07-20T07:56:09;100390.87;;;11.46;100.00
36454;BME280;22478;51.740;-1.314;2023-07-20T07:58:36;100389.80;;;12.02;100.00
36454;BME280;22478;51.740;-1.314;2023-07-20T08:01:03;100387.45;;;11.30;100.00
36454;BME280;22478;51.740;-1.314;2023-07-20T08:03:30;100386.90;;;13.02;100.00
36454;BME280;22478;51.740;-1.314;2023-07-20T08:05:57;100377.13;;;14.76;88.79
36454;BME280;22478;51.740;-1.314;2023-07-20T08:08:24;100377.22;;;14.50;89.29
36454;BME280;22478;51.740;-1.314;2023-07-20T08:10:53;100381.22;;;12.94;96.06
36454;BME280;22478;51.740;-1.314;2023-07-20T08:13:20;100380.98;;;13.21;93.70
36454;BME280;22478;51.740;-1.314;2023-07-20T08:15:50;100373.69;;;13.39;86.98
36454;BME280;22478;51.740;-1.314;2023-07-20T08:18:18;100373.61;;;12.74;89.20
36454;BME280;22478;51.740;-1.314;2023-07-20T08:20:45;100364.42;;;16.20;81.26
36454;BME280;22478;51.740;-1.314;2023-07-20T08:23:13;100369.57;;;14.70;86.32
36454;BME280;22478;51.740;-1.314;2023-07-20T08:25:40;100369.84;;;14.04;73.43
36454;BME280;22478;51.740;-1.314;2023-07-20T08:28:07;100363.88;;;17.78;61.32
36454;BME280;22478;51.740;-1.314;2023-07-20T08:30:40;100361.00;;;15.41;71.24
36454;BME280;22478;51.740;-1.314;2023-07-20T08:33:08;100361.53;;;15.99;65.57
36454;BME280;22478;51.740;-1.314;2023-07-20T08:35:35;100355.73;;;16.26;64.60
36454;BME280;22478;51.740;-1.314;2023-07-20T08:38:02;100349.37;;;20.11;56.60
36454;BME280;22478;51.740;-1.314;2023-07-20T08:40:30;100358.24;;;16.19;56.63
36454;BME280;22478;51.740;-1.314;2023-07-20T08:42:59;100355.13;;;17.47;53.29
36454;BME280;22478;51.740;-1.314;2023-07-20T08:45:27;100357.25;;;19.06;50.54
36454;BME280;22478;51.740;-1.314;2023-07-20T08:47:56;100358.17;;;18.75;46.90
36454;BME280;22478;51.740;-1.314;2023-07-20T08:50:25;100353.45;;;18.94;46.32
36454;BME280;22478;51.740;-1.314;2023-07-20T08:52:53;100365.93;;;15.78;54.84
36454;BME280;22478;51.740;-1.314;2023-07-20T08:55:23;100353.23;;;22.45;44.74
36454;BME280;22478;51.740;-1.314;2023-07-20T08:57:53;100351.82;;;19.67;47.93
36454;BME280;22478;51.740;-1.314;2023-07-20T09:00:21;100353.19;;;19.84;45.65
36454;BME280;22478;51.740;-1.314;2023-07-20T09:02:51;100353.15;;;19.58;45.84
36454;BME280;22478;51.740;-1.314;2023-07-20T09:05:18;100351.50;;;20.82;42.43
36454;BME280;22478;51.740;-1.314;2023-07-20T09:07:47;100357.46;;;16.83;49.40
36454;BME280;22478;51.740;-1.314;2023-07-20T09:10:14;100365.73;;;16.47;51.82
36454;BME280;22478;51.740;-1.314;2023-07-20T09:12:43;100353.35;;;19.64;47.24
36454;BME280;22478;51.740;-1.314;2023-07-20T09:15:11;100348.01;;;22.26;42.54
36454;BME280;22478;51.740;-1.314;2023-07-20T09:17:39;100337.01;;;22.25;40.11
36454;BME280;22478;51.740;-1.314;2023-07-20T09:20:08;100355.59;;;15.21;50.40
36454;BME280;22478;51.740;-1.314;2023-07-20T09:22:35;100345.17;;;19.29;45.92
36454;BME280;22478;51.740;-1.314;2023-07-20T09:25:06;100340.37;;;19.30;45.72
36454;BME280;22478;51.740;-1.314;2023-07-20T09:27:36;100334.50;;;25.03;37.45
36454;BME280;22478;51.740;-1.314;2023-07-20T09:30:05;100332.33;;;25.61;34.86
36454;BME280;22478;51.740;-1.314;2023-07-20T09:32:38;100329.97;;;24.26;38.04
36454;BME280;22478;51.740;-1.314;2023-07-20T09:35:07;100338.58;;;20.49;40.41
36454;BME280;22478;51.740;-1.314;2023-07-20T09:37:39;100329.87;;;22.96;36.84
36454;BME280;22478;51.740;-1.314;2023-07-20T09:40:07;100332.51;;;20.38;41.45
36454;BME280;22478;51.740;-1.314;2023-07-20T09:42:36;100327.75;;;21.57;40.23
36454;BME280;22478;51.740;-1.314;2023-07-20T09:45:07;100320.54;;;23.48;37.70
36454;BME280;22478;51.740;-1.314;2023-07-20T09:47:36;100329.55;;;17.09;45.96
36454;BME280;22478;51.740;-1.314;2023-07-20T09:50:05;100326.25;;;19.45;45.61
36454;BME280;22478;51.740;-1.314;2023-07-20T09:52:34;100328.63;;;19.50;46.52
36454;BME280;22478;51.740;-1.314;2023-07-20T09:55:03;100323.67;;;19.86;45.67
36454;BME280;22478;51.740;-1.314;2023-07-20T09:57:31;100317.32;;;23.42;41.03
36454;BME280;22478;51.740;-1.314;2023-07-20T09:59:59;100317.99;;;22.24;39.15
36454;BME280;22478;51.740;-1.314;2023-07-20T10:02:32;100314.18;;;23.02;39.45
36454;BME280;22478;51.740;-1.314;2023-07-20T10:05:02;100315.25;;;21.47;39.51
36454;BME280;22478;51.740;-1.314;2023-07-20T10:07:31;100323.34;;;18.16;44.69
36454;BME280;22478;51.740;-1.314;2023-07-20T10:10:02;100314.95;;;19.61;44.54
36454;BME280;22478;51.740;-1.314;2023-07-20T10:12:31;100318.58;;;18.23;43.02
36454;BME280;22478;51.740;-1.314;2023-07-20T10:15:06;100316.94;;;21.38;39.46
36454;BME280;22478;51.740;-1.314;2023-07-20T10:17:37;100304.28;;;26.46;34.27
36454;BME280;22478;51.740;-1.314;2023-07-20T10:20:08;100305.17;;;22.17;37.31
36454;BME280;22478;51.740;-1.314;2023-07-20T10:22:37;100314.39;;;20.20;37.44
36454;BME280;22478;51.740;-1.314;2023-07-20T10:25:06;100305.73;;;24.05;34.92
36454;BME280;22478;51.740;-1.314;2023-07-20T10:27:34;100301.48;;;24.47;32.92
36454;BME280;22478;51.740;-1.314;2023-07-20T10:30:02;100301.59;;;23.83;35.50
36454;BME280;22478;51.740;-1.314;2023-07-20T10:32:29;100303.42;;;25.75;32.74
36454;BME280;22478;51.740;-1.314;2023-07-20T10:34:56;100301.79;;;23.96;34.46
36454;BME280;22478;51.740;-1.314;2023-07-20T10:38:00;100304.51;;;21.80;36.84
36454;BME280;22478;51.740;-1.314;2023-07-20T10:40:30;100309.21;;;20.60;38.80
36454;BME280;22478;51.740;-1.314;2023-07-20T10:43:01;100295.32;;;23.14;35.47
36454;BME280;22478;51.740;-1.314;2023-07-20T10:45:40;100294.39;;;23.79;35.49
36454;BME280;22478;51.740;-1.314;2023-07-20T10:48:14;100298.81;;;20.69;38.16
36454;BME280;22478;51.740;-1.314;2023-07-20T10:50:42;100299.04;;;19.37;40.84
36454;BME280;22478;51.740;-1.314;2023-07-20T10:53:13;100303.93;;;20.48;40.28
36454;BME280;22478;51.740;-1.314;2023-07-20T10:55:41;100301.47;;;19.27;41.50
36454;BME280;22478;51.740;-1.314;2023-07-20T10:58:10;100303.94;;;20.81;41.14
36454;BME280;22478;51.740;-1.314;2023-07-20T11:00:55;100300.49;;;20.25;41.14
36454;BME280;22478;51.740;-1.314;2023-07-20T11:03:27;100300.13;;;16.76;45.82
36454;BME280;22478;51.740;-1.314;2023-07-20T11:05:56;100297.92;;;17.97;47.29
36454;BME280;22478;51.740;-1.314;2023-07-20T11:08:40;100292.26;;;21.54;42.92
36454;BME280;22478;51.740;-1.314;2023-07-20T11:11:25;100291.47;;;19.50;40.48
36454;BME280;22478;51.740;-1.314;2023-07-20T11:13:55;100282.86;;;22.52;38.34
36454;BME280;22478;51.740;-1.314;2023-07-20T11:16:37;100288.47;;;18.56;41.38
36454;BME280;22478;51.740;-1.314;2023-07-20T11:19:05;100285.72;;;21.49;39.47
36454;BME280;22478;51.740;-1.314;2023-07-20T11:21:37;100289.61;;;17.42;44.43
36454;BME280;22478;51.740;-1.314;2023-07-20T11:24:06;100288.56;;;16.50;48.74
36454;BME280;22478;51.740;-1.314;2023-07-20T11:26:43;100292.00;;;16.94;48.73
36454;BME280;22478;51.740;-1.314;2023-07-20T11:29:11;100286.70;;;18.27;48.92
36454;BME280;22478;51.740;-1.314;2023-07-20T11:31:39;100289.12;;;18.30;48.56
36454;BME280;22478;51.740;-1.314;2023-07-20T11:34:12;100288.17;;;18.17;47.21
36454;BME280;22478;51.740;-1.314;2023-07-20T11:36:40;100293.04;;;16.77;50.93
36454;BME280;22478;51.740;-1.314;2023-07-20T11:39:08;100285.15;;;19.12;47.51
36454;BME280;22478;51.740;-1.314;2023-07-20T11:41:36;100287.91;;;16.65;50.63
36454;BME280;22478;51.740;-1.314;2023-07-20T11:44:04;100285.73;;;16.71;50.82
36454;BME280;22478;51.740;-1.314;2023-07-20T11:46:31;100282.88;;;17.77;50.80
36454;BME280;22478;51.740;-1.314;2023-07-20T11:48:59;100284.46;;;17.97;52.03
36454;BME280;22478;51.740;-1.314;2023-07-20T11:51:28;100281.87;;;18.99;49.59
36454;BME280;22478;51.740;-1.314;2023-07-20T11:53:56;100273.30;;;19.35;44.98
36454;BME280;22478;51.740;-1.314;2023-07-20T11:56:24;100276.97;;;21.48;43.06
36454;BME280;22478;51.740;-1.314;2023-07-20T11:58:55;100272.98;;;22.50;42.93
36454;BME280;22478;51.740;-1.314;2023-07-20T12:01:23;100265.44;;;22.31;39.04
36454;BME280;22478;51.740;-1.314;2023-07-20T12:03:51;100261.28;;;23.84;36.25
36454;BME280;22478;51.740;-1.314;2023-07-20T12:06:22;100257.88;;;23.59;35.99
36454;BME280;22478;51.740;-1.314;2023-07-20T12:08:49;100262.60;;;21.07;36.67
36454;BME280;22478;51.740;-1.314;2023-07-20T12:11:31;100256.83;;;23.63;34.39
36454;BME280;22478;51.740;-1.314;2023-07-20T12:13:58;100268.04;;;20.38;39.72
36454;BME280;22478;51.740;-1.314;2023-07-20T12:16:28;100266.85;;;19.08;41.10
36454;BME280;22478;51.740;-1.314;2023-07-20T12:19:00;100264.65;;;19.71;41.50
36454;BME280;22478;51.740;-1.314;2023-07-20T12:21:28;100264.50;;;18.45;44.34
36454;BME280;22478;51.740;-1.314;2023-07-20T12:23:56;100265.97;;;17.34;46.88
36454;BME280;22478;51.740;-1.314;2023-07-20T12:26:24;100272.48;;;15.77;49.34
36454;BME280;22478;51.740;-1.314;2023-07-20T12:28:52;100267.54;;;16.08;49.76
36454;BME280;22478;51.740;-1.314;2023-07-20T12:31:19;100263.06;;;17.42;48.67
36454;BME280;22478;51.740;-1.314;2023-07-20T12:33:46;100258.57;;;17.85;48.17
36454;BME280;22478;51.740;-1.314;2023-07-20T12:36:13;100254.82;;;18.26;47.85
36454;BME280;22478;51.740;-1.314;2023-07-20T12:38:40;100252.73;;;17.81;48.53
36454;BME280;22478;51.740;-1.314;2023-07-20T12:41:09;100260.53;;;16.38;51.92
36454;BME280;22478;51.740;-1.314;2023-07-20T12:43:36;100262.67;;;16.99;52.32
36454;BME280;22478;51.740;-1.314;2023-07-20T12:46:03;100252.12;;;19.27;46.93